Time;durP1;ratioP1;P1;durP2;ratioP2;P2;SDS_P1;SDS_P2;PMS_P1;PMS_P2;Temp;Humidity;BMP_temperature;BMP_pressure;BME280_temperature;BME280_humidity;BME280_pressure;Samples;Min_cycle;Max_cycle;Signal;HPM_P1;HPM_P2
2022/03/09 00:01:52;;;;;;;12.20;9.13;;;1.60;99.90;;;2.28;82.81;-19804.59;5092771;28;20291;-61
2022/03/09 00:04:24;;;;;;;15.90;9.17;;;1.60;99.90;;;2.28;82.82;-19804.44;5092216;28;20525;-64
2022/03/09 00:06:52;;;;;;;13.93;9.10;;;1.60;99.90;;;2.32;82.04;-19805.97;5092095;28;20253;-62
2022/03/09 00:09:20;;;;;;;11.87;8.63;;;1.60;99.90;;;2.23;82.47;-19802.91;5092503;28;20300;-61
2022/03/09 00:11:49;;;;;;;12.23;9.07;;;1.60;99.90;;;2.16;83.21;-19800.50;5092199;28;20215;-60
2022/03/09 00:14:17;;;;;;;10.87;8.67;;;1.50;99.90;;;2.12;83.47;-19798.97;5092128;28;20311;-63
2022/03/09 00:16:45;;;;;;;11.87;8.87;;;1.50;99.90;;;2.09;83.17;-19798.13;5092311;28;20666;-61
2022/03/09 00:19:13;;;;;;;11.83;9.23;;;1.50;99.90;;;2.21;82.54;-19802.06;5092025;28;20235;-61
2022/03/09 00:21:41;;;;;;;11.97;9.10;;;1.40;99.90;;;2.18;82.71;-19801.03;5092142;28;20230;-61
2022/03/09 00:24:09;;;;;;;10.70;8.90;;;1.40;99.90;;;2.10;83.91;-19798.47;5091970;28;20310;-62
2022/03/09 00:26:37;;;;;;;12.50;9.17;;;1.40;99.90;;;2.16;83.65;-19800.34;5091677;28;20219;-63
2022/03/09 00:29:07;;;;;;;13.03;9.20;;;1.40;99.90;;;2.12;83.89;-19799.16;5092080;28;20220;-62
2022/03/09 00:31:35;;;;;;;10.97;8.83;;;1.40;99.90;;;2.17;84.03;-19800.84;5091478;28;20782;-61
2022/03/09 00:34:03;;;;;;;11.93;8.63;;;1.40;99.90;;;2.17;83.39;-19800.69;5091543;28;20235;-61
2022/03/09 00:36:32;;;;;;;12.03;8.50;;;1.40;99.90;;;2.12;83.21;-19798.97;5091372;28;20737;-61
2022/03/09 00:39:00;;;;;;;12.83;8.37;;;1.40;99.90;;;2.21;82.87;-19802.22;5091961;28;20285;-62
2022/03/09 00:41:28;;;;;;;11.67;8.43;;;1.40;99.90;;;2.14;83.04;-19799.66;5091556;28;20307;-61
2022/03/09 00:43:56;;;;;;;12.73;8.80;;;1.50;99.90;;;2.05;83.74;-19796.75;5092098;28;20311;-61
2022/03/09 00:46:26;;;;;;;10.57;8.57;;;1.40;99.90;;;2.09;83.91;-19798.13;5091369;28;20714;-64
2022/03/09 00:48:54;;;;;;;10.93;8.53;;;1.40;99.90;;;2.04;84.06;-19796.25;5091386;28;20240;-61
2022/03/09 00:51:22;;;;;;;11.90;8.53;;;1.40;99.90;;;2.14;83.77;-19799.81;5090389;28;20770;-62
2022/03/09 00:53:51;;;;;;;11.03;8.97;;;1.40;99.90;;;1.94;84.61;-19793.00;5091499;28;20220;-63
2022/03/09 00:56:19;;;;;;;11.67;8.73;;;1.30;99.90;;;1.92;85.23;-19792.31;5090957;28;20659;-62
2022/03/09 00:58:48;;;;;;;10.93;9.23;;;1.30;99.90;;;1.91;85.33;-19791.97;5091962;28;20294;-61
2022/03/09 01:01:16;;;;;;;9.33;8.30;;;1.20;99.90;;;2.00;84.92;-19794.88;5091300;28;20654;-63
2022/03/09 01:03:46;;;;;;;10.37;7.93;;;1.30;99.90;;;1.83;85.99;-19789.06;5090559;28;20227;-60
2022/03/09 01:06:16;;;;;;;12.10;8.77;;;1.20;99.90;;;1.78;86.58;-19787.34;5091239;28;20323;-62
2022/03/09 01:08:44;;;;;;;11.10;8.63;;;1.20;99.90;;;1.68;87.44;-19784.09;5091483;28;20232;-62
2022/03/09 01:11:12;;;;;;;10.77;8.57;;;1.10;99.90;;;1.71;87.74;-19785.13;5091468;28;20325;-61
2022/03/09 01:13:43;;;;;;;11.80;8.70;;;1.10;99.90;;;1.92;86.47;-19792.13;5090564;28;20706;-63
2022/03/09 01:16:12;;;;;;;11.83;8.87;;;1.10;99.90;;;1.75;87.32;-19786.31;5090956;28;20322;-61
2022/03/09 01:18:40;;;;;;;10.87;8.30;;;1.10;99.90;;;1.71;87.68;-19785.13;5090921;28;20230;-62
2022/03/09 01:21:10;;;;;;;15.00;8.80;;;1.00;99.90;;;1.57;88.70;-19780.34;5091100;28;20218;-63
2022/03/09 01:23:38;;;;;;;12.17;9.70;;;1.00;99.90;;;1.60;89.16;-19781.38;5091263;28;20259;-63
2022/03/09 01:26:06;;;;;;;13.13;9.23;;;0.90;99.90;;;1.66;88.88;-19783.41;5092015;28;20294;-62
2022/03/09 01:28:35;;;;;;;12.57;9.57;;;0.90;99.90;;;1.63;89.19;-19782.22;5090531;28;20330;-60
2022/03/09 01:31:03;;;;;;;11.43;8.80;;;1.00;99.90;;;1.49;89.29;-19777.59;5091250;28;20306;-62
2022/03/09 01:33:31;;;;;;;11.53;8.47;;;0.90;99.90;;;1.43;89.95;-19775.38;5090879;28;20305;-61
2022/03/09 01:35:59;;;;;;;12.27;9.53;;;0.90;99.90;;;1.53;90.06;-19778.78;5089463;28;20300;-60
2022/03/09 01:38:29;;;;;;;12.10;9.47;;;0.80;99.90;;;1.59;90.31;-19781.03;5090873;28;20215;-61
2022/03/09 01:40:57;;;;;;;12.20;9.27;;;0.80;99.90;;;1.40;91.18;-19774.34;5091661;28;20200;-61
2022/03/09 01:43:25;;;;;;;10.67;9.17;;;0.80;99.90;;;1.28;92.38;-19770.41;5090385;28;20310;-60
2022/03/09 01:45:53;;;;;;;13.53;9.63;;;0.70;99.90;;;1.23;92.34;-19768.88;5090728;28;20311;-62
2022/03/09 01:48:21;;;;;;;11.97;9.30;;;0.70;99.90;;;1.14;93.59;-19765.63;5090620;28;20304;-61
2022/03/09 01:50:49;;;;;;;11.87;9.23;;;0.60;99.90;;;1.04;94.85;-19762.22;5090860;28;20323;-62
2022/03/09 01:53:18;;;;;;;12.60;9.43;;;0.60;99.90;;;1.17;95.26;-19766.66;5090482;28;20214;-61
2022/03/09 01:55:48;;;;;;;11.90;8.87;;;0.50;99.90;;;1.14;94.94;-19765.63;5091325;28;20731;-61
2022/03/09 01:58:16;;;;;;;11.00;9.10;;;0.50;99.90;;;1.21;95.71;-19768.03;5090300;28;20328;-60
2022/03/09 02:00:44;;;;;;;13.13;9.27;;;0.50;99.90;;;1.19;94.99;-19767.34;5090621;28;20828;-60
2022/03/09 02:03:12;;;;;;;11.37;8.90;;;0.50;99.90;;;1.06;95.40;-19762.91;5093902;28;20743;-61
2022/03/09 02:05:40;;;;;;;12.47;10.00;;;0.50;99.90;;;1.00;96.62;-19761.03;5094396;28;20486;-62
2022/03/09 02:10:55;;;;;;;11.47;9.70;;;0.40;99.90;;;0.97;98.06;-19759.81;5094232;28;20258;-61
2022/03/09 02:13:23;;;;;;;12.63;9.40;;;0.30;99.90;;;0.94;98.10;-19758.78;5094145;28;20302;-61
2022/03/09 02:15:51;;;;;;;14.33;9.97;;;0.30;99.90;;;1.10;97.27;-19764.25;5094494;28;20249;-61
2022/03/09 02:18:19;;;;;;;14.60;10.80;;;0.30;99.90;;;1.01;97.20;-19761.19;5094452;28;20223;-61
2022/03/09 02:20:50;;;;;;;14.37;10.17;;;0.30;99.90;;;1.04;97.10;-19762.38;5094373;28;20227;-61
2022/03/09 02:23:20;;;;;;;15.20;9.80;;;0.40;99.90;;;0.94;97.35;-19758.97;5094494;28;20271;-61
2022/03/09 02:25:48;;;;;;;13.47;9.63;;;0.30;99.90;;;0.91;97.78;-19757.94;5094972;28;20366;-62
2022/03/09 02:28:16;;;;;;;12.53;8.60;;;0.30;99.90;;;0.85;98.01;-19755.88;5094004;28;20234;-60
2022/03/09 02:30:44;;;;;;;12.83;9.33;;;0.30;99.90;;;0.81;98.36;-19754.34;5075556;28;20239;-60
2022/03/09 02:33:12;;;;;;;9.97;8.10;;;0.30;99.90;;;0.81;97.79;-19754.34;5073927;28;20286;-59
2022/03/09 02:35:40;;;;;;;11.60;8.23;;;0.20;99.90;;;0.85;98.18;-19755.72;5073924;28;20247;-62
2022/03/09 02:38:10;;;;;;;10.67;8.43;;;0.20;99.90;;;0.80;97.72;-19754.00;5074226;28;20619;-60
2022/03/09 02:40:39;;;;;;;10.80;8.50;;;0.20;99.90;;;0.85;97.51;-19755.72;5073775;28;20311;-61
2022/03/09 02:43:08;;;;;;;11.77;7.90;;;0.20;99.90;;;0.76;97.45;-19752.66;5073395;28;20228;-61
2022/03/09 02:45:37;;;;;;;11.77;8.17;;;0.20;99.90;;;0.75;96.96;-19752.28;5073733;28;20282;-62
2022/03/09 02:48:05;;;;;;;10.50;8.30;;;0.10;99.90;;;0.80;97.35;-19754.00;5080582;28;20218;-61
2022/03/09 02:50:33;;;;;;;10.83;8.13;;;0.10;99.90;;;0.90;96.75;-19757.44;5093835;28;20661;-61
2022/03/09 02:53:01;;;;;;;11.80;8.60;;;0.20;99.90;;;0.97;95.50;-19760.00;5094068;28;20749;-61
2022/03/09 02:55:29;;;;;;;10.37;8.43;;;0.20;99.90;;;0.81;96.28;-19754.53;5093733;28;20303;-61
2022/03/09 02:57:58;;;;;;;10.87;7.53;;;0.20;99.90;;;0.91;96.67;-19757.94;5093460;28;20306;-61
2022/03/09 03:00:28;;;;;;;12.60;8.53;;;0.20;99.90;;;0.96;95.86;-19759.66;5093483;28;20227;-60
2022/03/09 03:02:56;;;;;;;9.87;8.00;;;0.20;99.90;;;0.80;96.78;-19754.00;5093986;28;20249;-60
2022/03/09 03:05:24;;;;;;;10.83;7.90;;;0.20;99.90;;;0.75;97.56;-19752.28;5093868;28;20224;-60
2022/03/09 03:07:53;;;;;;;12.07;8.10;;;0.20;99.90;;;0.85;97.04;-19755.88;5093918;28;20196;-61
2022/03/09 03:10:22;;;;;;;11.47;8.23;;;0.20;99.90;;;1.13;95.25;-19765.47;5093049;28;20281;-60
2022/03/09 03:12:49;;;;;;;10.93;8.60;;;0.20;99.90;;;0.99;94.75;-19760.69;5092984;28;20254;-62
2022/03/09 03:15:19;;;;;;;10.70;7.60;;;0.30;99.90;;;0.75;96.41;-19752.47;5092990;28;20563;-61
2022/03/09 03:17:47;;;;;;;9.97;8.40;;;0.20;99.90;;;0.69;97.44;-19750.25;5093678;28;20629;-60
2022/03/09 03:20:15;;;;;;;11.17;8.63;;;0.10;99.90;;;0.91;96.74;-19757.94;5093136;28;20203;-60
2022/03/09 03:22:43;;;;;;;10.57;8.30;;;0.20;99.90;;;0.70;97.53;-19750.59;5094013;28;20200;-61
2022/03/09 03:25:11;;;;;;;9.87;7.67;;;0.10;99.90;;;0.70;97.52;-19750.75;5093033;28;20224;-61
2022/03/09 03:27:39;;;;;;;11.20;8.10;;;0.10;99.90;;;0.68;97.91;-19749.91;5093101;28;20224;-61
2022/03/09 03:30:08;;;;;;;12.27;8.40;;;0.10;99.90;;;0.91;96.62;-19757.94;5079545;28;20220;-60
2022/03/09 03:32:38;;;;;;;10.87;8.83;;;0.10;99.90;;;0.88;95.98;-19756.75;5072994;28;20232;-61
2022/03/09 03:35:08;;;;;;;11.63;7.93;;;0.10;99.90;;;0.84;96.25;-19755.56;5073442;28;20228;-62
2022/03/09 03:37:36;;;;;;;10.40;8.37;;;0.10;99.90;;;0.62;97.55;-19748.03;5072775;28;20232;-60
2022/03/09 03:40:05;;;;;;;11.10;8.33;;;0.10;99.90;;;0.48;98.61;-19743.25;5072756;28;20226;-59
2022/03/09 03:42:33;;;;;;;11.33;8.50;;;0.00;99.90;;;0.85;97.46;-19755.88;5072828;28;20312;-61
2022/03/09 03:45:01;;;;;;;10.43;8.53;;;0.00;99.90;;;1.04;95.71;-19762.38;5085268;28;20227;-61
2022/03/09 03:47:29;;;;;;;10.33;8.50;;;0.10;99.90;;;1.14;94.99;-19765.63;5092624;28;20750;-61
2022/03/09 03:49:58;;;;;;;11.33;7.90;;;0.20;99.90;;;0.97;95.06;-19759.81;5093191;28;20206;-60
2022/03/09 03:52:26;;;;;;;10.87;8.10;;;0.20;99.90;;;0.61;96.71;-19747.50;5092550;28;20307;-61
2022/03/09 03:54:57;;;;;;;12.43;7.80;;;0.10;99.90;;;0.45;98.35;-19742.22;5092438;28;20222;-61
2022/03/09 03:57:25;;;;;;;12.27;8.17;;;-0.10;99.90;;;0.34;99.98;-19738.44;5092685;28;20302;-61
2022/03/09 03:59:53;;;;;;;10.17;8.20;;;-0.10;99.90;;;0.55;100.00;-19745.63;5092678;28;20239;-61
2022/03/09 04:02:21;;;;;;;10.10;7.70;;;-0.20;99.90;;;0.53;99.57;-19744.78;5092536;28;20657;-61
2022/03/09 04:04:50;;;;;;;11.10;8.30;;;-0.20;99.90;;;0.51;100.00;-19744.09;5092616;28;20676;-61
2022/03/09 04:07:19;;;;;;;12.20;8.33;;;-0.20;99.90;;;0.67;99.61;-19749.75;5092561;28;20223;-61
2022/03/09 04:09:47;;;;;;;11.37;8.80;;;-0.10;99.90;;;0.86;98.11;-19756.06;5092314;28;20234;-62
2022/03/09 04:12:15;;;;;;;11.93;8.67;;;-0.10;99.90;;;0.77;98.30;-19753.16;5092122;28;20219;-61
2022/03/09 04:14:43;;;;;;;10.37;8.43;;;-0.10;99.90;;;0.50;99.90;-19743.91;5092125;28;20715;-61
2022/03/09 04:17:11;;;;;;;10.27;8.33;;;-0.10;99.90;;;0.48;100.00;-19743.06;5092890;28;20291;-59
2022/03/09 04:19:39;;;;;;;11.97;8.77;;;-0.20;99.90;;;0.52;100.00;-19744.44;5092027;28;20697;-61
2022/03/09 04:22:07;;;;;;;9.83;8.37;;;-0.20;99.90;;;0.66;100.00;-19749.22;5092155;28;20309;-60
2022/03/09 04:24:37;;;;;;;10.30;8.00;;;-0.20;99.90;;;0.78;98.78;-19753.31;5091881;28;20301;-61
2022/03/09 04:27:07;;;;;;;11.73;8.70;;;-0.10;99.90;;;0.69;99.05;-19750.41;5092052;28;20227;-59
2022/03/09 04:29:35;;;;;;;11.40;8.67;;;-0.10;99.90;;;0.63;99.37;-19748.19;5082600;28;20307;-61
2022/03/09 04:32:04;;;;;;;9.43;7.67;;;-0.10;99.90;;;0.37;100.00;-19739.47;5072534;28;20197;-61
2022/03/09 04:34:31;;;;;;;9.57;7.57;;;-0.20;99.90;;;0.23;100.00;-19734.69;5071479;28;20760;-61
2022/03/09 04:36:59;;;;;;;12.70;8.53;;;-0.30;99.90;;;0.36;100.00;-19738.97;5071895;28;20225;-60
2022/03/09 04:39:28;;;;;;;9.20;7.77;;;-0.30;99.90;;;0.57;100.00;-19746.16;5071586;28;20784;-60
2022/03/09 04:41:57;;;;;;;10.33;8.07;;;-0.30;99.90;;;0.70;99.97;-19750.75;5089856;28;20302;-60
2022/03/09 04:44:25;;;;;;;11.37;7.73;;;-0.20;99.90;;;0.85;98.77;-19755.72;5091901;28;20297;-60
2022/03/09 04:46:53;;;;;;;10.37;7.30;;;-0.10;99.90;;;1.12;97.26;-19765.13;5092122;28;20356;-60
2022/03/09 04:49:21;;;;;;;11.07;7.93;;;0.00;99.90;;;1.11;96.26;-19764.78;5091593;28;20235;-60
2022/03/09 04:51:54;;;;;;;10.87;8.17;;;0.20;99.90;;;0.88;96.59;-19756.91;5091490;28;20226;-60
2022/03/09 04:54:22;;;;;;;10.60;8.20;;;0.10;99.90;;;0.58;98.24;-19746.47;5091519;28;20326;-60
2022/03/09 04:56:50;;;;;;;10.13;7.57;;;0.00;99.90;;;0.56;98.81;-19745.97;5091482;28;20302;-61
2022/03/09 04:59:20;;;;;;;9.33;7.77;;;-0.10;99.90;;;0.48;99.54;-19743.06;5091465;28;20594;-60
2022/03/09 05:01:48;;;;;;;11.27;8.30;;;-0.10;99.90;;;0.43;99.83;-19741.53;5091858;28;20298;-61
2022/03/09 05:04:16;;;;;;;10.97;8.03;;;-0.20;99.90;;;0.64;99.74;-19748.53;5091336;28;20234;-60
2022/03/09 05:06:44;;;;;;;9.33;7.43;;;-0.20;99.90;;;0.58;99.18;-19746.66;5091721;28;20318;-63
2022/03/09 05:09:12;;;;;;;10.03;8.10;;;-0.20;99.90;;;0.44;99.40;-19741.69;5091936;28;20306;-60
2022/03/09 05:11:40;;;;;;;10.87;8.30;;;-0.20;99.90;;;0.27;100.00;-19735.88;5093347;28;20688;-61
2022/03/09 05:14:08;;;;;;;10.60;8.40;;;-0.30;99.90;;;0.28;100.00;-19736.22;5093963;28;20291;-61
2022/03/09 05:16:37;;;;;;;9.50;7.70;;;-0.30;99.90;;;0.25;100.00;-19735.38;5092050;28;20235;-60
2022/03/09 05:19:05;;;;;;;11.77;7.97;;;-0.40;99.90;;;0.32;100.00;-19737.78;5091445;28;20228;-60
2022/03/09 05:21:35;;;;;;;11.60;8.03;;;-0.40;99.90;;;0.41;100.00;-19740.84;5091276;28;20228;-61
2022/03/09 05:24:03;;;;;;;11.27;9.57;;;-0.40;99.90;;;0.31;100.00;-19737.25;5091330;28;20307;-60
2022/03/09 05:26:31;;;;;;;10.47;8.43;;;-0.40;99.90;;;0.35;100.00;-19738.63;5090801;28;20677;-63
2022/03/09 05:28:59;;;;;;;12.70;9.10;;;-0.40;99.90;;;0.35;100.00;-19738.78;5092037;28;20283;-61
2022/03/09 05:31:27;;;;;;;14.13;9.37;;;-0.40;99.90;;;0.42;100.00;-19741.19;5090924;28;20228;-61
2022/03/09 05:33:57;;;;;;;11.93;9.00;;;-0.40;99.90;;;0.37;100.00;-19739.31;5091037;28;20225;-60
2022/03/09 05:36:25;;;;;;;10.07;8.80;;;-0.40;99.90;;;0.15;100.00;-19731.97;5086544;28;20779;-60
2022/03/09 05:38:53;;;;;;;11.63;8.17;;;-0.50;99.90;;;0.55;100.00;-19745.63;5070908;28;20230;-60
2022/03/09 05:41:22;;;;;;;13.23;9.13;;;-0.30;99.90;;;0.47;100.00;-19742.91;5083801;28;20197;-61
2022/03/09 05:43:51;;;;;;;11.90;8.43;;;-0.30;99.90;;;0.52;100.00;-19744.44;5091255;28;20199;-61
2022/03/09 05:46:19;;;;;;;11.50;9.10;;;-0.30;99.90;;;0.59;100.00;-19747.00;5091010;28;20235;-60
2022/03/09 05:48:47;;;;;;;11.10;9.33;;;-0.20;99.90;;;0.46;100.00;-19742.38;5090887;28;20228;-59
2022/03/09 05:51:16;;;;;;;11.13;8.50;;;-0.20;99.90;;;0.34;100.00;-19738.28;5090749;28;20262;-59
2022/03/09 05:53:44;;;;;;;12.60;9.27;;;-0.30;99.90;;;0.32;100.00;-19737.59;5091088;28;20227;-60
2022/03/09 05:56:12;;;;;;;12.43;9.17;;;-0.30;99.90;;;0.51;100.00;-19744.09;5091194;28;20239;-59
2022/03/09 05:58:40;;;;;;;13.53;9.30;;;-0.20;99.90;;;0.50;100.00;-19743.75;5090691;28;20303;-60
2022/03/09 06:01:08;;;;;;;13.20;9.23;;;-0.20;99.90;;;0.56;100.00;-19745.81;5090657;28;20223;-60
2022/03/09 06:03:37;;;;;;;13.27;8.93;;;-0.20;99.90;;;0.47;100.00;-19742.72;5090806;28;20229;-60
2022/03/09 06:06:05;;;;;;;11.30;9.50;;;-0.20;99.90;;;0.47;100.00;-19742.72;5090484;28;20230;-60
2022/03/09 06:08:35;;;;;;;11.67;9.40;;;-0.20;99.90;;;0.47;100.00;-19742.91;5090892;28;20295;-59
2022/03/09 06:11:08;;;;;;;11.27;9.30;;;-0.10;99.90;;;0.62;100.00;-19747.84;5091117;28;20212;-59
2022/03/09 06:13:36;;;;;;;14.23;9.60;;;-0.10;99.90;;;0.69;100.00;-19750.25;5090307;28;20595;-61
2022/03/09 06:16:05;;;;;;;12.90;9.93;;;0.00;99.90;;;0.79;100.00;-19753.66;5090368;28;20241;-59
2022/03/09 06:18:33;;;;;;;13.03;9.17;;;0.10;99.90;;;0.81;100.00;-19754.53;5090344;28;20239;-60
2022/03/09 06:21:01;;;;;;;12.40;9.43;;;0.10;99.90;;;1.06;100.00;-19762.91;5090221;28;20255;-61
2022/03/09 06:23:30;;;;;;;13.90;9.50;;;0.20;99.90;;;1.09;100.00;-19763.94;5090082;28;20200;-60
2022/03/09 06:25:59;;;;;;;14.67;9.13;;;0.30;99.90;;;1.14;100.00;-19765.81;5090827;28;20303;-61
2022/03/09 06:28:28;;;;;;;14.33;9.80;;;0.40;99.90;;;1.18;100.00;-19767.00;5089848;28;20239;-60
2022/03/09 06:30:56;;;;;;;10.43;9.00;;;0.50;99.90;;;1.27;99.90;-19769.91;5069772;28;20226;-60
2022/03/09 06:33:25;;;;;;;14.53;9.87;;;0.60;99.90;;;1.51;98.83;-19778.13;5079081;28;20226;-57
2022/03/09 06:35:53;;;;;;;14.23;9.77;;;0.70;99.90;;;1.47;98.44;-19776.91;5088569;28;20235;-57
2022/03/09 06:38:21;;;;;;;12.83;9.57;;;0.80;99.90;;;1.68;97.37;-19783.94;5089880;28;20294;-61
2022/03/09 06:40:49;;;;;;;12.27;9.20;;;0.90;99.90;;;1.83;95.78;-19789.22;5090645;28;20203;-58
2022/03/09 06:43:18;;;;;;;13.80;9.37;;;1.00;99.90;;;1.86;95.58;-19790.25;5089840;28;20227;-59
2022/03/09 06:45:46;;;;;;;14.67;9.67;;;1.10;99.90;;;1.92;94.92;-19792.31;5089802;28;20242;-60
2022/03/09 06:48:14;;;;;;;13.43;9.20;;;1.20;99.90;;;2.06;93.62;-19797.09;5089937;28;20252;-60
2022/03/09 06:50:42;;;;;;;13.40;9.53;;;1.30;99.90;;;2.04;93.44;-19796.41;5092812;28;20220;-60
2022/03/09 06:53:10;;;;;;;14.97;9.87;;;1.40;99.90;;;2.17;92.99;-19800.84;5093782;28;20206;-61
2022/03/09 06:55:38;;;;;;;15.80;9.87;;;1.50;99.90;;;2.54;91.52;-19813.16;5093254;28;20220;-59
2022/03/09 06:58:06;;;;;;;14.17;10.40;;;1.60;99.90;;;2.55;90.40;-19813.69;5093065;28;20709;-60
2022/03/09 07:00:36;;;;;;;14.97;10.03;;;1.70;99.90;;;2.56;90.14;-19813.84;5093054;28;20220;-59
2022/03/09 07:03:05;;;;;;;13.50;9.93;;;1.80;99.90;;;2.69;89.76;-19818.28;5093139;28;20240;-59
2022/03/09 07:05:36;;;;;;;13.47;9.50;;;1.90;99.90;;;2.82;88.17;-19822.72;5093018;28;20269;-58
2022/03/09 07:08:04;;;;;;;12.27;9.43;;;2.00;99.90;;;2.91;87.49;-19825.81;5093724;28;20249;-59
2022/03/09 07:10:32;;;;;;;14.70;10.00;;;2.10;99.90;;;2.98;87.13;-19828.38;5092969;28;20307;-59
2022/03/09 07:13:00;;;;;;;14.90;9.57;;;2.20;99.90;;;3.11;85.72;-19832.81;5092761;28;20227;-55
2022/03/09 07:15:31;;;;;;;13.53;9.43;;;2.30;99.90;;;3.14;83.75;-19833.84;5093066;28;20297;-57
2022/03/09 07:18:00;;;;;;;12.43;9.37;;;2.40;99.90;;;3.20;80.35;-19835.91;5092806;28;20230;-58
2022/03/09 07:20:28;;;;;;;11.83;9.17;;;2.40;99.90;;;3.28;81.21;-19838.63;5092383;28;20206;-58
2022/03/09 07:22:56;;;;;;;11.83;8.97;;;2.50;99.90;;;3.45;80.46;-19844.28;5093321;28;20265;-59
2022/03/09 07:25:24;;;;;;;12.00;8.97;;;2.50;99.90;;;3.42;80.24;-19843.25;5093031;28;20237;-58
2022/03/09 07:27:58;;;;;;;11.90;9.50;;;2.60;99.90;;;3.58;78.94;-19848.72;5092755;28;20264;-60
2022/03/09 07:30:25;;;;;;;12.67;9.13;;;2.60;99.90;;;3.93;77.20;-19860.69;5092320;28;20236;-60
2022/03/09 07:32:53;;;;;;;12.03;9.07;;;2.70;99.90;;;3.80;77.54;-19856.25;5092688;28;20225;-61
2022/03/09 07:35:24;;;;;;;13.67;8.93;;;2.80;99.90;;;3.87;76.92;-19858.63;5092740;28;20208;-60
2022/03/09 07:37:52;;;;;;;13.47;8.80;;;3.00;99.90;;;4.33;73.92;-19874.34;5093313;28;20195;-55
2022/03/09 07:40:21;;;;;;;11.27;8.20;;;3.00;99.90;;;4.17;74.76;-19868.72;5092483;28;20246;-59
2022/03/09 07:42:49;;;;;;;15.30;9.30;;;3.20;99.90;;;4.43;74.01;-19877.78;5092135;28;20235;-59
2022/03/09 07:45:22;;;;;;;9.93;8.90;;;3.20;99.90;;;4.38;75.07;-19876.06;5092478;28;20215;-59
2022/03/09 07:47:50;;;;;;;12.13;9.60;;;3.30;99.90;;;4.33;74.68;-19874.34;5092080;28;20220;-60
2022/03/09 07:50:18;;;;;;;11.53;8.80;;;3.40;99.90;;;4.49;73.68;-19879.81;5092214;28;20207;-59
2022/03/09 07:52:47;;;;;;;10.97;8.93;;;3.60;99.90;;;4.52;73.42;-19880.69;5092748;28;20730;-60
2022/03/09 07:55:16;;;;;;;11.20;8.13;;;3.70;99.90;;;4.61;72.13;-19883.75;5092606;28;20226;-57
2022/03/09 07:57:44;;;;;;;10.57;8.57;;;3.70;99.90;;;4.96;69.67;-19895.91;5092008;28;20722;-56
2022/03/09 08:00:14;;;;;;;11.83;9.17;;;3.80;99.90;;;4.78;71.10;-19889.56;5091457;28;20310;-56
2022/03/09 08:02:43;;;;;;;15.77;8.87;;;3.90;99.90;;;4.95;70.65;-19895.56;5092478;28;20232;-54
2022/03/09 08:05:11;;;;;;;13.02;9.43;;;3.90;99.90;;;5.04;70.15;-19898.28;5092250;28;20474;-60
2022/03/09 08:07:39;;;;;;;11.50;8.17;;;4.00;99.90;;;5.12;70.31;-19901.19;5092431;28;20256;-60
2022/03/09 08:10:10;;;;;;;12.70;8.63;;;4.10;99.90;;;5.16;69.35;-19902.56;5092231;28;20330;-57
2022/03/09 08:12:39;;;;;;;11.87;8.10;;;4.20;99.90;;;5.31;69.08;-19907.53;5092232;28;20311;-55
2022/03/09 08:15:11;;;;;;;9.17;7.40;;;4.30;99.90;;;5.50;68.43;-19914.00;5092087;28;20230;-56
2022/03/09 08:17:39;;;;;;;9.77;8.37;;;4.50;99.90;;;5.69;67.55;-19920.69;5091984;28;20222;-59
2022/03/09 08:20:08;;;;;;;11.03;8.37;;;4.70;99.90;;;5.89;66.24;-19927.34;5092539;28;20210;-57
2022/03/09 08:22:39;;;;;;;11.37;8.50;;;4.80;99.90;;;5.91;64.95;-19928.03;5091643;28;20267;-58
2022/03/09 08:25:09;;;;;;;12.40;8.63;;;4.90;99.90;;;6.10;62.76;-19934.53;5091282;28;20221;-58
2022/03/09 08:27:37;;;;;;;11.67;8.53;;;5.00;99.90;;;6.08;63.21;-19933.84;5091617;28;20232;-60
2022/03/09 08:30:06;;;;;;;11.07;8.13;;;5.00;99.90;;;5.97;63.28;-19930.09;5091402;28;20743;-61
2022/03/09 08:32:34;;;;;;;10.07;8.20;;;5.00;99.90;;;6.01;63.43;-19931.44;5091765;28;20231;-60
2022/03/09 08:35:02;;;;;;;11.80;8.43;;;5.10;99.90;;;6.25;62.26;-19939.47;5091922;28;20205;-62
2022/03/09 08:38:39;;;;;;;12.80;8.43;;;5.20;99.90;;;6.32;62.18;-19942.03;5088007;28;20227;-61
2022/03/09 08:41:08;;;;;;;11.27;8.67;;;5.30;99.90;;;6.57;61.02;-19950.59;5086830;28;20601;-60
2022/03/09 08:43:36;;;;;;;11.27;8.13;;;5.40;99.90;;;6.60;61.36;-19951.63;5091822;28;20241;-61
2022/03/09 08:46:04;;;;;;;10.90;8.50;;;5.40;99.90;;;6.72;60.54;-19955.72;5091498;28;20243;-61
2022/03/09 08:48:33;;;;;;;12.50;8.87;;;5.60;99.90;;;6.92;59.66;-19962.56;5091261;28;20631;-61
2022/03/09 08:51:00;;;;;;;10.70;8.03;;;5.70;99.90;;;6.92;59.02;-19962.38;5091261;28;20235;-61
2022/03/09 08:53:28;;;;;;;10.20;8.30;;;5.80;99.90;;;7.03;59.04;-19966.31;5091647;28;20202;-61
2022/03/09 08:55:56;;;;;;;9.17;8.13;;;5.90;99.90;;;7.11;58.17;-19968.88;5092285;28;20207;-61
2022/03/09 08:58:25;;;;;;;10.77;8.40;;;6.00;99.90;;;7.32;57.36;-19976.22;5091715;28;20776;-57
2022/03/09 09:00:53;;;;;;;13.70;8.55;;;6.10;99.90;;;7.47;56.90;-19981.00;5070977;28;20405;-60
2022/03/09 09:03:23;;;;;;;11.63;8.73;;;6.20;99.90;;;7.52;56.68;-19982.72;5071317;28;20234;-60
2022/03/09 09:05:53;;;;;;;13.90;9.23;;;6.40;99.90;;;7.62;56.73;-19986.31;5071264;28;20223;-60
2022/03/09 09:08:21;;;;;;;10.23;7.50;;;6.40;99.90;;;7.84;55.07;-19993.81;5071105;28;20250;-59
2022/03/09 09:10:49;;;;;;;11.43;8.85;;;6.60;99.90;;;7.79;54.45;-19992.13;5069642;28;20450;-56
2022/03/09 09:13:17;;;;;;;9.43;8.33;;;6.60;99.90;;;7.90;55.04;-19995.72;5070747;28;20627;-57
2022/03/09 09:15:47;;;;;;;9.83;8.03;;;6.70;99.90;;;8.08;54.56;-20001.84;5071106;28;20312;-58
2022/03/09 09:18:15;;;;;;;9.80;7.43;;;6.90;99.90;;;8.30;53.19;-20009.38;5071298;28;20712;-59
2022/03/09 09:20:49;;;;;;;9.03;7.27;;;6.90;99.90;;;8.58;52.08;-20018.94;5070655;28;20316;-60
2022/03/09 09:23:19;;;;;;;8.47;7.37;;;7.20;99.90;;;8.28;52.14;-20008.69;5089843;28;20687;-60
2022/03/09 09:25:48;;;;;;;11.20;7.77;;;7.10;99.90;;;8.32;52.78;-20010.06;5091688;28;20196;-57
2022/03/09 09:28:17;;;;;;;10.33;7.70;;;7.20;99.90;;;8.48;52.26;-20015.69;5090874;28;20227;-59
2022/03/09 09:30:48;;;;;;;10.63;7.63;;;7.30;99.90;;;8.68;51.08;-20022.34;5090910;28;20310;-60
2022/03/09 09:33:16;;;;;;;8.33;7.43;;;7.50;99.90;;;8.93;49.87;-20030.72;5091253;28;20592;-62
2022/03/09 09:35:49;;;;;;;9.40;7.63;;;7.60;99.90;;;8.92;50.51;-20030.56;5091083;28;20230;-62
2022/03/09 09:38:17;;;;;;;9.93;7.27;;;7.60;99.90;;;9.02;49.62;-20033.97;5091125;28;20269;-61
2022/03/09 09:40:51;;;;;;;8.40;7.20;;;7.70;99.90;;;9.00;49.43;-20033.28;5091490;28;20462;-61
2022/03/09 09:43:19;;;;;;;10.23;7.30;;;7.80;99.90;;;8.84;49.75;-20027.66;5091026;28;20606;-60
2022/03/09 09:45:53;;;;;;;10.13;7.37;;;7.70;99.90;;;8.99;49.15;-20032.97;5089937;28;20236;-60
2022/03/09 09:48:20;;;;;;;11.00;7.37;;;7.80;99.90;;;9.11;48.39;-20037.06;5089987;28;20223;-59
2022/03/09 09:50:54;;;;;;;10.23;7.50;;;7.90;99.90;;;9.19;47.68;-20039.63;5090185;28;20597;-61
2022/03/09 09:53:24;;;;;;;11.03;8.07;;;8.00;99.90;;;9.43;47.67;-20047.81;5089688;28;20204;-60
2022/03/09 09:55:52;;;;;;;8.57;7.43;;;8.10;99.90;;;9.55;48.10;-20052.09;5090340;28;20275;-60
2022/03/09 09:58:21;;;;;;;13.60;8.80;;;8.40;99.90;;;9.61;47.34;-20053.97;5090573;28;20306;-60
2022/03/09 10:00:50;;;;;;;10.10;8.90;;;8.30;99.90;;;9.78;47.36;-20059.94;5085611;28;20228;-60
2022/03/09 10:03:18;;;;;;;9.73;8.73;;;8.40;99.90;;;9.94;45.85;-20065.06;5081499;28;20232;-60
2022/03/09 10:05:47;;;;;;;10.97;9.03;;;8.60;99.90;;;9.76;45.49;-20059.25;5090633;28;20220;-60
2022/03/09 10:08:17;;;;;;;15.03;9.10;;;8.60;99.90;;;9.84;45.44;-20062.00;5090657;28;20222;-59
2022/03/09 10:10:56;;;;;;;12.57;9.10;;;8.60;99.90;;;9.86;45.64;-20062.69;5090745;28;20243;-59
2022/03/09 10:13:27;;;;;;;12.80;9.30;;;8.70;99.90;;;9.92;45.49;-20064.38;5090224;28;20219;-61
2022/03/09 10:16:16;;;;;;;11.53;9.47;;;8.70;99.90;;;10.11;45.30;-20071.06;5089634;28;20238;-60
2022/03/09 10:18:50;;;;;;;11.77;7.67;;;8.80;99.90;;;10.16;44.74;-20072.59;5089841;28;20218;-60
2022/03/09 10:21:21;;;;;;;9.67;7.47;;;8.90;99.90;;;10.29;43.37;-20077.19;5090312;28;20750;-61
2022/03/09 10:24:01;;;;;;;10.63;7.90;;;9.00;99.90;;;10.34;43.51;-20078.75;5093185;28;20302;-61
2022/03/09 10:26:45;;;;;;;10.03;7.67;;;9.00;99.90;;;10.43;43.13;-20081.81;5093746;28;20690;-59
2022/03/09 10:29:16;;;;;;;13.57;8.63;;;9.00;99.90;;;10.38;43.97;-20080.28;5095010;28;20208;-60